createdAt,value
2023-04-26T00:02:27.411Z,5.30
2023-04-26T00:04:56.273Z,5.20
2023-04-26T00:07:26.787Z,5.20
2023-04-26T00:09:54.887Z,5.20
2023-04-26T00:12:22.958Z,5.20
2023-04-26T00:14:51.002Z,5.20
2023-04-26T00:17:19.020Z,5.20
2023-04-26T00:19:47.059Z,5.30
2023-04-26T00:22:15.317Z,5.20
2023-04-26T00:24:44.889Z,5.30
2023-04-26T00:27:12.865Z,5.30
2023-04-26T00:29:40.947Z,5.30
2023-04-26T00:32:09.317Z,5.20
2023-04-26T00:34:38.382Z,5.30
2023-04-26T00:37:07.226Z,5.20
2023-04-26T00:39:35.272Z,5.20
2023-04-26T00:42:04.680Z,5.20
2023-04-26T00:44:32.688Z,5.20
2023-04-26T00:47:00.743Z,5.20
2023-04-26T00:49:29.282Z,5.20
2023-04-26T00:51:58.768Z,5.20
2023-04-26T00:54:27.210Z,5.20
2023-04-26T00:56:55.812Z,5.20
2023-04-26T00:59:25.219Z,5.20
2023-04-26T01:01:53.272Z,5.20
2023-04-26T01:04:21.680Z,5.20
2023-04-26T01:06:49.889Z,5.20
2023-04-26T01:09:20.010Z,5.20
2023-04-26T01:11:48.727Z,5.20
2023-04-26T01:14:17.049Z,5.20
2023-04-26T01:16:47.714Z,5.20
2023-04-26T01:19:16.640Z,5.20
2023-04-26T01:21:44.977Z,5.20
2023-04-26T01:24:14.935Z,5.20
2023-04-26T01:26:45.837Z,5.20
2023-04-26T01:29:17.903Z,5.20
2023-04-26T01:31:46.272Z,5.20
2023-04-26T01:34:14.842Z,5.20
2023-04-26T01:36:43.279Z,5.20
2023-04-26T01:39:12.811Z,5.20
2023-04-26T01:41:42.219Z,5.20
2023-04-26T01:44:10.237Z,5.20
2023-04-26T01:46:38.309Z,5.30
2023-04-26T01:49:06.705Z,5.20
2023-04-26T01:51:35.266Z,5.20
2023-04-26T01:54:03.276Z,5.20
2023-04-26T01:56:31.324Z,5.20
2023-04-26T01:59:00.648Z,5.20
2023-04-26T02:01:28.699Z,5.20
2023-04-26T02:03:56.707Z,5.20
2023-04-26T02:06:24.899Z,5.20
2023-04-26T02:08:54.038Z,5.20
2023-04-26T02:11:23.150Z,5.20
2023-04-26T02:13:51.165Z,5.20
2023-04-26T02:16:21.323Z,5.10
2023-04-26T02:18:49.888Z,5.10
2023-04-26T02:21:18.348Z,5.20
2023-04-26T02:23:46.563Z,5.20
2023-04-26T02:26:14.611Z,5.20
2023-04-26T02:28:42.989Z,5.20
2023-04-26T02:31:11.232Z,5.20
2023-04-26T02:33:40.849Z,5.10
2023-04-26T02:36:09.414Z,5.10
2023-04-26T02:38:37.875Z,5.10
2023-04-26T02:41:06.496Z,5.10
2023-04-26T02:43:34.654Z,5.10
2023-04-26T02:46:02.683Z,5.10
2023-04-26T02:48:30.674Z,5.10
2023-04-26T02:51:00.051Z,5.10
2023-04-26T02:53:28.047Z,5.10
2023-04-26T02:55:56.048Z,5.10
2023-04-26T02:58:24.090Z,5.10
2023-04-26T03:00:52.148Z,5.10
2023-04-26T03:03:20.488Z,5.10
2023-04-26T03:05:48.553Z,5.10
2023-04-26T03:08:18.244Z,5.10
2023-04-26T03:10:46.686Z,5.00
2023-04-26T03:13:15.193Z,5.10
2023-04-26T03:15:46.203Z,5.10
2023-04-26T03:18:14.397Z,5.10
2023-04-26T03:20:43.056Z,5.10
2023-04-26T03:23:11.133Z,5.00
2023-04-26T03:25:40.940Z,5.10
2023-04-26T03:28:08.925Z,5.10
2023-04-26T03:30:36.929Z,5.00
2023-04-26T03:33:05.170Z,5.00
2023-04-26T03:35:33.205Z,5.00
2023-04-26T03:38:01.392Z,5.10
2023-04-26T03:40:29.945Z,5.00
2023-04-26T03:42:59.362Z,5.00
2023-04-26T03:45:27.824Z,5.00
2023-04-26T03:47:56.954Z,5.00
2023-04-26T03:50:24.990Z,5.00
2023-04-26T03:52:53.033Z,5.00
2023-04-26T03:55:21.213Z,5.00
2023-04-26T03:57:49.520Z,5.00
2023-04-26T04:00:18.926Z,5.00
2023-04-26T04:02:47.448Z,5.00
2023-04-26T04:05:15.754Z,5.00
2023-04-26T04:07:44.036Z,5.10
2023-04-26T04:10:12.511Z,5.10
2023-04-26T04:12:40.712Z,5.10
2023-04-26T04:15:09.922Z,5.00
2023-04-26T04:17:39.356Z,5.00
2023-04-26T04:20:08.922Z,5.00
2023-04-26T04:22:39.049Z,5.00
2023-04-26T04:25:09.143Z,5.00
2023-04-26T04:27:38.151Z,5.00
2023-04-26T04:30:08.533Z,5.00
2023-04-26T04:32:36.937Z,5.00
2023-04-26T04:35:07.350Z,5.10
2023-04-26T04:37:35.418Z,5.10
2023-04-26T04:40:04.122Z,5.10
2023-04-26T04:42:32.364Z,5.10
2023-04-26T04:45:00.809Z,5.20
2023-04-26T04:47:28.846Z,5.20
2023-04-26T04:49:57.090Z,5.10
2023-04-26T04:52:26.488Z,5.10
2023-04-26T04:54:54.459Z,5.20
2023-04-26T04:57:22.504Z,5.20
2023-04-26T04:59:51.219Z,5.20
2023-04-26T05:02:19.498Z,5.30
2023-04-26T05:04:48.226Z,5.30
2023-04-26T05:07:18.221Z,5.40
2023-04-26T05:09:47.908Z,5.40
2023-04-26T05:12:15.976Z,5.40
2023-04-26T05:14:44.057Z,5.40
2023-04-26T05:17:12.316Z,5.50
2023-04-26T05:19:40.517Z,5.60
2023-04-26T05:22:08.609Z,5.60
2023-04-26T05:24:36.600Z,5.60
2023-04-26T05:27:06.035Z,5.60
2023-04-26T05:29:33.986Z,5.70
2023-04-26T05:32:02.324Z,5.80
2023-04-26T05:34:30.377Z,5.80
2023-04-26T05:36:58.408Z,5.90
2023-04-26T05:39:26.622Z,5.80
2023-04-26T05:41:54.630Z,5.90
2023-04-26T05:44:24.631Z,6.00
2023-04-26T05:46:52.611Z,6.10
2023-04-26T05:49:20.795Z,6.20
2023-04-26T05:51:48.811Z,6.20
2023-04-26T05:54:16.858Z,6.20
2023-04-26T05:56:44.830Z,6.30
2023-04-26T05:59:13.777Z,6.30
2023-04-26T06:01:43.217Z,6.40
2023-04-26T06:04:11.624Z,6.40
2023-04-26T06:06:40.024Z,6.50
2023-04-26T06:09:08.726Z,6.50
2023-04-26T06:11:36.757Z,6.50
2023-04-26T06:14:04.931Z,6.50
2023-04-26T06:16:33.041Z,6.50
2023-04-26T06:19:02.794Z,6.50
2023-04-26T06:21:31.137Z,6.70
2023-04-26T06:23:59.186Z,6.70
2023-04-26T06:26:27.184Z,6.80
2023-04-26T06:28:55.766Z,6.90
2023-04-26T06:31:23.890Z,6.90
2023-04-26T06:33:52.078Z,6.80
2023-04-26T06:36:21.662Z,6.90
2023-04-26T06:38:49.738Z,7.00
2023-04-26T06:41:17.712Z,7.10
2023-04-26T06:43:45.765Z,7.10
2023-04-26T06:46:13.764Z,7.10
2023-04-26T06:48:41.839Z,7.10
2023-04-26T06:51:10.212Z,7.20
2023-04-26T06:53:39.610Z,7.20
2023-04-26T06:56:07.826Z,7.20
2023-04-26T06:58:36.277Z,7.30
2023-04-26T07:01:06.324Z,7.40
2023-04-26T07:03:34.629Z,7.60
2023-04-26T07:06:02.872Z,7.70
2023-04-26T07:08:31.389Z,7.80
2023-04-26T07:11:00.799Z,8.60
2023-04-26T07:13:28.842Z,10.10
2023-04-26T07:15:56.895Z,12.10
2023-04-26T07:18:25.032Z,13.40
2023-04-26T07:20:53.052Z,14.80
2023-04-26T07:23:21.286Z,15.70
2023-04-26T07:25:49.436Z,15.30
2023-04-26T07:28:18.855Z,15.30
2023-04-26T07:30:46.870Z,14.70
2023-04-26T07:33:15.017Z,14.30
2023-04-26T07:35:44.510Z,14.20
2023-04-26T07:38:14.511Z,14.70
2023-04-26T07:40:43.293Z,15.50
2023-04-26T07:43:11.445Z,15.90
2023-04-26T07:45:40.874Z,15.70
2023-04-26T07:48:09.108Z,16.70
2023-04-26T07:50:37.350Z,17.30
2023-04-26T07:53:05.850Z,17.10
2023-04-26T07:55:33.877Z,16.30
2023-04-26T07:58:02.479Z,15.90
2023-04-26T08:00:30.648Z,14.90
2023-04-26T08:03:00.393Z,14.30
2023-04-26T08:05:28.769Z,13.40
2023-04-26T08:07:56.859Z,13.10
2023-04-26T08:10:24.991Z,14.10
2023-04-26T08:12:53.026Z,15.70
2023-04-26T08:15:21.131Z,15.50
2023-04-26T08:17:53.029Z,16.10
2023-04-26T08:20:22.783Z,16.80
2023-04-26T08:22:51.572Z,17.00
2023-04-26T08:25:19.638Z,17.40
2023-04-26T08:27:47.699Z,18.40
2023-04-26T08:30:15.804Z,18.80
2023-04-26T08:32:43.886Z,19.10
2023-04-26T08:35:12.440Z,19.60
2023-04-26T08:37:42.688Z,19.30
2023-04-26T08:40:11.687Z,18.30
2023-04-26T08:42:43.862Z,17.30
2023-04-26T08:45:12.553Z,16.30
2023-04-26T08:47:45.586Z,15.40
2023-04-26T08:50:14.914Z,15.20
2023-04-26T08:52:46.704Z,14.40
2023-04-26T08:55:16.470Z,13.80
2023-04-26T08:57:45.049Z,13.90
2023-04-26T09:00:15.697Z,14.70
2023-04-26T09:02:47.365Z,16.00
2023-04-26T09:05:15.532Z,16.30
2023-04-26T09:07:47.119Z,17.00
2023-04-26T09:10:20.995Z,16.70
2023-04-26T09:12:52.741Z,16.30
2023-04-26T09:15:22.744Z,16.10
2023-04-26T09:17:51.941Z,15.60
2023-04-26T09:20:22.747Z,15.30
2023-04-26T09:22:53.335Z,15.20
2023-04-26T09:25:29.161Z,14.60
2023-04-26T09:27:57.482Z,14.50
2023-04-26T09:30:26.063Z,14.10
2023-04-26T09:32:55.838Z,13.40
2023-04-26T09:35:29.996Z,13.50
2023-04-26T09:38:07.349Z,13.30
2023-04-26T09:40:41.022Z,12.80
2023-04-26T09:43:11.660Z,12.50
2023-04-26T09:45:49.485Z,12.60
2023-04-26T09:48:22.030Z,14.20
2023-04-26T09:50:52.435Z,15.70
2023-04-26T09:53:34.593Z,17.50
2023-04-26T09:56:10.352Z,18.90
2023-04-26T09:58:39.800Z,20.00
2023-04-26T10:01:09.967Z,20.60
2023-04-26T10:03:38.684Z,19.90
2023-04-26T10:06:07.728Z,18.70
2023-04-26T10:08:37.758Z,16.90
2023-04-26T10:11:07.764Z,15.90
2023-04-26T10:13:36.084Z,14.70
2023-04-26T10:16:05.091Z,14.10
2023-04-26T10:18:33.578Z,12.80
2023-04-26T10:21:08.401Z,12.20
2023-04-26T10:23:38.463Z,11.50
2023-04-26T10:26:07.561Z,11.30
2023-04-26T10:29:02.636Z,11.00
2023-04-26T10:32:05.316Z,11.10
2023-04-26T10:34:34.641Z,11.10
2023-04-26T10:37:09.812Z,11.10
2023-04-26T10:39:39.515Z,10.80
2023-04-26T10:42:25.681Z,10.70
2023-04-26T10:44:54.850Z,10.80
2023-04-26T10:47:28.652Z,10.90
2023-04-26T10:50:07.336Z,10.90
2023-04-26T10:52:36.547Z,11.10
2023-04-26T10:55:07.867Z,11.00
2023-04-26T10:57:52.870Z,11.10
2023-04-26T11:00:32.716Z,11.40
2023-04-26T11:03:09.117Z,11.50
2023-04-26T11:05:53.518Z,11.80
2023-04-26T11:08:24.771Z,12.20
2023-04-26T11:11:08.536Z,12.50
2023-04-26T11:13:39.610Z,13.00
2023-04-26T11:16:09.018Z,12.80
2023-04-26T11:18:38.828Z,12.80
2023-04-26T11:21:07.627Z,12.70
2023-04-26T11:23:36.643Z,12.70
2023-04-26T11:26:08.435Z,12.80
2023-04-26T11:28:38.858Z,13.30
2023-04-26T11:31:08.664Z,13.80
2023-04-26T11:33:37.009Z,14.30
2023-04-26T11:36:05.703Z,15.00
2023-04-26T11:38:33.778Z,15.40
2023-04-26T11:41:03.260Z,15.00
2023-04-26T11:43:36.688Z,14.90
2023-04-26T11:46:05.868Z,15.20
2023-04-26T11:48:35.707Z,15.10
2023-04-26T11:51:05.603Z,15.40
2023-04-26T11:53:38.131Z,15.20
2023-04-26T11:56:15.158Z,15.80
2023-04-26T11:58:47.527Z,15.40
2023-04-26T12:01:23.544Z,16.00
2023-04-26T12:03:53.848Z,15.80
2023-04-26T12:06:27.542Z,16.00
2023-04-26T12:08:57.396Z,16.20
2023-04-26T12:11:25.510Z,15.60
2023-04-26T12:13:54.824Z,15.30
2023-04-26T12:16:26.634Z,15.70
2023-04-26T12:18:56.753Z,15.80
2023-04-26T12:21:30.415Z,16.00
2023-04-26T12:23:58.975Z,15.70
2023-04-26T12:26:43.570Z,15.50
2023-04-26T12:29:12.987Z,15.60
2023-04-26T12:31:41.766Z,15.30
2023-04-26T12:34:09.950Z,15.50
2023-04-26T12:36:38.034Z,13.90
2023-04-26T12:39:06.901Z,13.60
2023-04-26T12:41:34.995Z,13.30
2023-04-26T12:44:03.104Z,13.20
2023-04-26T12:46:32.753Z,12.70
2023-04-26T12:49:00.990Z,13.00
2023-04-26T12:51:29.345Z,13.60
2023-04-26T12:53:58.474Z,14.30
2023-04-26T12:56:27.509Z,14.80
2023-04-26T12:58:55.630Z,15.40
2023-04-26T13:01:23.708Z,15.20
2023-04-26T13:03:53.345Z,15.30
2023-04-26T13:06:21.505Z,15.40
2023-04-26T13:08:49.543Z,14.90
2023-04-26T13:11:18.107Z,14.60
2023-04-26T13:13:46.366Z,14.60
2023-04-26T13:16:14.569Z,14.90
2023-04-26T13:18:42.735Z,14.80
2023-04-26T13:21:12.177Z,14.20
2023-04-26T13:23:40.178Z,14.30
2023-04-26T13:26:08.736Z,14.10
2023-04-26T13:28:37.932Z,14.20
2023-04-26T13:31:06.558Z,14.40
2023-04-26T13:33:34.895Z,15.10
2023-04-26T13:36:02.968Z,15.30
2023-04-26T13:38:33.062Z,15.10
2023-04-26T13:41:01.339Z,14.70
2023-04-26T13:43:29.458Z,14.70
2023-04-26T13:45:57.653Z,14.70
2023-04-26T13:48:25.787Z,14.70
2023-04-26T13:50:53.854Z,14.30
2023-04-26T13:53:22.090Z,14.00
2023-04-26T13:55:51.809Z,13.90
2023-04-26T13:58:19.986Z,13.90
2023-04-26T14:00:48.010Z,13.80
2023-04-26T14:03:16.436Z,14.00
2023-04-26T14:05:44.685Z,14.00
2023-04-26T14:08:13.789Z,14.20
2023-04-26T14:10:42.132Z,14.10
2023-04-26T14:13:11.839Z,14.00
2023-04-26T14:15:39.904Z,14.00
2023-04-26T14:18:08.089Z,14.10
2023-04-26T14:20:37.360Z,14.00
2023-04-26T14:23:05.655Z,14.00
2023-04-26T14:25:33.921Z,13.80
2023-04-26T14:28:03.402Z,13.80
2023-04-26T14:30:32.898Z,13.70
2023-04-26T14:33:01.029Z,13.60
2023-04-26T14:35:29.107Z,13.40
2023-04-26T14:37:57.135Z,13.30
2023-04-26T14:40:25.197Z,13.50
2023-04-26T14:42:53.255Z,14.10
2023-04-26T14:45:27.788Z,14.40
2023-04-26T14:48:02.919Z,14.30
2023-04-26T14:50:31.139Z,14.20
2023-04-26T14:52:59.210Z,14.20
2023-04-26T14:55:27.672Z,14.30
2023-04-26T14:57:55.673Z,14.60
2023-04-26T15:00:25.530Z,14.60
2023-04-26T15:02:53.784Z,14.30
2023-04-26T15:05:24.298Z,14.60
2023-04-26T15:07:52.874Z,14.30
2023-04-26T15:10:20.978Z,14.10
2023-04-26T15:12:48.976Z,14.20
2023-04-26T15:15:17.203Z,13.80
2023-04-26T15:17:45.327Z,13.50
2023-04-26T15:20:14.014Z,13.30
2023-04-26T15:22:43.441Z,13.10
2023-04-26T15:25:12.105Z,13.20
2023-04-26T15:27:40.171Z,13.00
2023-04-26T15:30:09.856Z,12.60
2023-04-26T15:32:38.250Z,12.50
2023-04-26T15:35:07.507Z,12.50
2023-04-26T15:37:38.285Z,12.30
2023-04-26T15:40:10.491Z,12.40
2023-04-26T15:42:39.404Z,12.40
2023-04-26T15:45:08.663Z,12.20
2023-04-26T15:47:37.071Z,12.50
2023-04-26T15:50:06.021Z,12.70
2023-04-26T15:52:38.548Z,12.90
2023-04-26T15:55:09.806Z,13.00
2023-04-26T15:57:38.046Z,13.10
2023-04-26T16:00:08.801Z,12.80
2023-04-26T16:02:36.957Z,12.70
2023-04-26T16:05:06.929Z,12.50
2023-04-26T16:07:35.092Z,12.50
2023-04-26T16:10:03.578Z,12.30
2023-04-26T16:12:33.021Z,12.20
2023-04-26T16:15:01.392Z,12.00
2023-04-26T16:17:29.759Z,12.00
2023-04-26T16:19:57.800Z,11.90
2023-04-26T16:22:25.773Z,11.90
2023-04-26T16:24:54.368Z,11.80
2023-04-26T16:27:22.559Z,11.60
2023-04-26T16:29:51.990Z,11.60
2023-04-26T16:32:20.008Z,11.70
2023-04-26T16:34:48.365Z,11.60
2023-04-26T16:37:16.464Z,11.50
2023-04-26T16:39:44.519Z,11.50
2023-04-26T16:42:12.521Z,11.40
2023-04-26T16:44:41.424Z,11.40
2023-04-26T16:47:10.860Z,11.30
2023-04-26T16:49:38.988Z,11.30
2023-04-26T16:52:08.453Z,11.20
2023-04-26T16:54:36.615Z,11.20
2023-04-26T16:57:04.837Z,11.20
2023-04-26T16:59:32.898Z,11.10
2023-04-26T17:02:01.012Z,11.00
2023-04-26T17:04:30.872Z,10.90
2023-04-26T17:06:59.036Z,10.70
2023-04-26T17:09:27.655Z,10.60
2023-04-26T17:11:55.756Z,10.50
2023-04-26T17:14:23.813Z,10.40
2023-04-26T17:16:51.925Z,10.30
2023-04-26T17:19:19.950Z,10.30
2023-04-26T17:21:49.538Z,10.30
2023-04-26T17:24:17.839Z,10.30
2023-04-26T17:26:46.851Z,10.20
2023-04-26T17:29:15.098Z,10.20
2023-04-26T17:31:44.363Z,10.10
2023-04-26T17:34:12.464Z,10.10
2023-04-26T17:36:41.297Z,10.00
2023-04-26T17:39:10.820Z,10.00
2023-04-26T17:41:39.433Z,9.90
2023-04-26T17:44:07.462Z,9.90
2023-04-26T17:46:35.620Z,9.90
2023-04-26T17:49:03.658Z,9.70
2023-04-26T17:51:33.055Z,9.70
2023-04-26T17:54:01.477Z,9.60
2023-04-26T17:56:31.277Z,9.60
2023-04-26T17:59:00.032Z,9.50
2023-04-26T18:01:28.958Z,9.40
2023-04-26T18:03:57.215Z,9.30
2023-04-26T18:06:25.346Z,9.30
2023-04-26T18:08:53.372Z,9.20
2023-04-26T18:11:21.998Z,9.10
2023-04-26T18:13:51.482Z,9.10
2023-04-26T18:16:19.594Z,9.00
2023-04-26T18:18:47.610Z,8.90
2023-04-26T18:21:15.680Z,8.90
2023-04-26T18:23:45.520Z,8.80
2023-04-26T18:26:13.730Z,8.70
2023-04-26T18:28:41.781Z,8.60
2023-04-26T18:31:11.475Z,8.60
2023-04-26T18:33:39.582Z,8.50
2023-04-26T18:36:08.264Z,8.40
2023-04-26T18:38:36.358Z,8.30
2023-04-26T18:41:04.399Z,8.20
2023-04-26T18:43:32.442Z,8.10
2023-04-26T18:46:00.621Z,8.00
2023-04-26T18:48:30.269Z,7.90
2023-04-26T18:50:58.276Z,7.90
2023-04-26T18:53:26.400Z,7.80
2023-04-26T18:55:54.515Z,7.70
2023-04-26T18:58:22.545Z,7.70
2023-04-26T19:00:50.593Z,7.70
2023-04-26T19:03:19.133Z,7.70
2023-04-26T19:05:48.756Z,7.70
2023-04-26T19:08:16.875Z,7.60
2023-04-26T19:10:44.878Z,7.60
2023-04-26T19:13:12.947Z,7.50
2023-04-26T19:15:41.079Z,7.40
2023-04-26T19:18:09.732Z,7.40
2023-04-26T19:20:38.025Z,7.30
2023-04-26T19:23:07.512Z,7.30
2023-04-26T19:25:35.936Z,7.20
2023-04-26T19:28:04.504Z,7.10
2023-04-26T19:30:32.674Z,7.10
2023-04-26T19:33:00.715Z,7.10
2023-04-26T19:35:28.829Z,7.00
2023-04-26T19:37:56.830Z,7.00
2023-04-26T19:40:26.301Z,7.00
2023-04-26T19:42:55.253Z,7.00
2023-04-26T19:45:23.664Z,7.00
2023-04-26T19:47:51.815Z,7.00
2023-04-26T19:50:20.206Z,7.00
2023-04-26T19:52:48.287Z,7.00
2023-04-26T19:55:16.327Z,6.90
2023-04-26T19:57:45.774Z,6.90
2023-04-26T20:00:15.839Z,6.80
2023-04-26T20:02:44.075Z,6.80
2023-04-26T20:05:12.615Z,6.70
2023-04-26T20:07:40.768Z,6.70
2023-04-26T20:10:10.630Z,6.70
2023-04-26T20:12:38.842Z,6.60
2023-04-26T20:15:09.788Z,6.60
2023-04-26T20:17:38.220Z,6.60
2023-04-26T20:20:07.727Z,6.50
2023-04-26T20:22:35.967Z,6.50
2023-04-26T20:25:04.282Z,6.40
2023-04-26T20:27:32.642Z,6.30
2023-04-26T20:30:01.015Z,6.20
2023-04-26T20:32:30.588Z,6.10
2023-04-26T20:34:58.590Z,6.10
2023-04-26T20:37:26.773Z,6.00
2023-04-26T20:39:55.021Z,5.90
2023-04-26T20:42:23.431Z,5.90
2023-04-26T20:44:51.432Z,5.80
2023-04-26T20:47:19.532Z,5.70
2023-04-26T20:49:49.164Z,5.70
2023-04-26T20:52:17.217Z,5.60
2023-04-26T20:54:46.266Z,5.60
2023-04-26T20:57:14.306Z,5.50
2023-04-26T20:59:43.367Z,5.40
2023-04-26T21:02:11.536Z,5.30
2023-04-26T21:04:42.186Z,5.30
2023-04-26T21:07:11.795Z,5.20
2023-04-26T21:09:39.883Z,5.20
2023-04-26T21:12:08.416Z,5.20
2023-04-26T21:14:36.614Z,5.20
2023-04-26T21:17:05.645Z,5.20
2023-04-26T21:19:33.836Z,5.20
2023-04-26T21:22:01.820Z,5.20
2023-04-26T21:24:31.222Z,5.20
2023-04-26T21:26:59.274Z,5.20
2023-04-26T21:29:27.593Z,5.20
2023-04-26T21:31:55.773Z,5.20
2023-04-26T21:34:23.842Z,5.30
2023-04-26T21:36:52.119Z,5.30
2023-04-26T21:39:20.176Z,5.30
2023-04-26T21:41:49.566Z,5.40
2023-04-26T21:44:17.573Z,5.40
2023-04-26T21:46:45.834Z,5.50
2023-04-26T21:49:13.840Z,5.50
2023-04-26T21:51:41.889Z,5.60
2023-04-26T21:54:10.044Z,5.60
2023-04-26T21:56:38.049Z,5.60
2023-04-26T21:59:08.290Z,5.70
2023-04-26T22:01:36.684Z,5.70
2023-04-26T22:04:05.049Z,5.80
2023-04-26T22:06:33.641Z,5.80
2023-04-26T22:09:02.075Z,5.80
2023-04-26T22:11:30.058Z,5.80
2023-04-26T22:13:58.056Z,5.80
2023-04-26T22:16:27.568Z,5.80
2023-04-26T22:18:55.747Z,5.80
2023-04-26T22:21:23.841Z,5.90
2023-04-26T22:23:51.899Z,5.80
2023-04-26T22:26:19.945Z,5.80
2023-04-26T22:28:48.003Z,5.80
2023-04-26T22:31:15.982Z,5.80
2023-04-26T22:33:45.476Z,5.80
2023-04-26T22:36:14.333Z,5.80
2023-04-26T22:38:42.342Z,5.80
2023-04-26T22:41:10.327Z,5.80
2023-04-26T22:43:38.410Z,5.80
2023-04-26T22:46:06.839Z,5.80
2023-04-26T22:48:34.936Z,5.80
2023-04-26T22:51:04.583Z,5.80
2023-04-26T22:53:32.564Z,5.80
2023-04-26T22:56:00.593Z,5.80
2023-04-26T22:58:28.604Z,5.80
2023-04-26T23:00:56.650Z,5.80
2023-04-26T23:03:24.844Z,5.70
2023-04-26T23:05:53.003Z,5.70
2023-04-26T23:08:22.548Z,5.80
2023-04-26T23:10:50.563Z,5.80
2023-04-26T23:13:18.474Z,5.90
2023-04-26T23:15:46.656Z,5.80
2023-04-26T23:18:14.669Z,5.80
2023-04-26T23:20:42.683Z,5.90
2023-04-26T23:23:10.833Z,5.90
2023-04-26T23:25:42.219Z,5.80
2023-04-26T23:28:10.515Z,5.90
2023-04-26T23:30:38.553Z,5.90
2023-04-26T23:33:06.657Z,5.90
2023-04-26T23:35:34.740Z,5.90
2023-04-26T23:38:02.754Z,5.80
2023-04-26T23:40:30.812Z,5.90
2023-04-26T23:43:00.286Z,5.90
2023-04-26T23:45:28.305Z,5.90
2023-04-26T23:47:56.408Z,5.90
2023-04-26T23:50:24.473Z,5.90
2023-04-26T23:52:52.495Z,5.90
2023-04-26T23:55:20.533Z,5.90
2023-04-26T23:57:48.508Z,5.90
